Time;durP1;ratioP1;P1;durP2;ratioP2;P2;SDS_P1;SDS_P2;PMS_P1;PMS_P2;Temp;Humidity;BMP_temperature;BMP_pressure;BME280_temperature;BME280_humidity;BME280_pressure;Samples;Min_cycle;Max_cycle;Signal;HPM_P1;HPM_P2
2023/11/21 04:08:47;;;;;;;0.30;0.30;;;9.30;99.90;;;;;;4936963;29;20259;-63
2023/11/21 04:11:13;;;;;;;0.30;0.30;;;9.30;99.90;;;;;;4937859;29;20169;-62
2023/11/21 04:13:40;;;;;;;0.30;0.30;;;9.40;99.90;;;;;;4937774;29;20667;-63
2023/11/21 04:16:07;;;;;;;0.30;0.30;;;9.40;99.90;;;;;;4920831;29;20689;-63
2023/11/21 04:18:35;;;;;;;0.30;0.30;;;9.40;99.90;;;;;;4926528;29;20209;-63
2023/11/21 04:21:00;;;;;;;0.30;0.30;;;9.40;99.90;;;;;;4922258;29;20638;-63
2023/11/21 04:23:27;;;;;;;0.60;0.60;;;9.40;99.90;;;;;;4946993;29;20192;-63
2023/11/21 04:25:54;;;;;;;0.40;0.40;;;9.40;99.90;;;;;;4943660;29;20300;-63
2023/11/21 04:28:19;;;;;;;0.30;0.30;;;9.40;99.90;;;;;;4932647;29;20266;-63
2023/11/21 04:30:45;;;;;;;0.30;0.30;;;9.30;99.90;;;;;;4938129;29;20649;-63
2023/11/21 04:33:10;;;;;;;0.30;0.30;;;9.30;99.90;;;;;;4949293;29;20585;-63
2023/11/21 04:35:36;;;;;;;0.30;0.30;;;9.30;99.90;;;;;;4936672;29;20243;-63
2023/11/21 04:38:02;;;;;;;0.30;0.30;;;9.30;99.90;;;;;;4932744;29;20202;-63
2023/11/21 04:40:28;;;;;;;0.30;0.30;;;9.30;99.90;;;;;;4953046;29;20236;-63
2023/11/21 04:42:53;;;;;;;0.40;0.40;;;9.30;99.90;;;;;;4957128;29;20182;-63
2023/11/21 04:45:19;;;;;;;0.30;0.30;;;9.20;99.90;;;;;;4946080;29;20560;-68
2023/11/21 04:47:45;;;;;;;0.40;0.40;;;9.20;99.90;;;;;;4939437;29;20344;-63
2023/11/21 04:50:10;;;;;;;0.30;0.30;;;9.20;99.90;;;;;;4946059;29;20178;-63
2023/11/21 04:52:36;;;;;;;0.30;0.30;;;9.20;99.90;;;;;;4948212;29;20188;-63
2023/11/21 04:55:02;;;;;;;0.30;0.30;;;9.20;99.90;;;;;;4943895;29;20201;-63
2023/11/21 04:57:28;;;;;;;0.30;0.20;;;9.20;99.90;;;;;;4945070;29;20177;-63
2023/11/21 04:59:54;;;;;;;0.30;0.30;;;9.10;99.90;;;;;;4937059;29;20429;-63
2023/11/21 05:02:21;;;;;;;0.30;0.30;;;9.10;99.90;;;;;;4930659;29;21830;-62
2023/11/21 05:04:47;;;;;;;0.30;0.30;;;9.10;99.90;;;;;;4920144;29;20178;-62
2023/11/21 05:07:13;;;;;;;0.30;0.30;;;9.10;99.90;;;;;;4929282;29;20193;-62
2023/11/21 05:09:46;;;;;;;0.30;0.30;;;9.10;99.90;;;;;;4942062;29;20538;-62
2023/11/21 05:12:12;;;;;;;0.30;0.30;;;9.10;99.90;;;;;;4938067;29;20265;-63
2023/11/21 05:14:38;;;;;;;0.30;0.30;;;9.10;99.90;;;;;;4936750;29;20178;-69
2023/11/21 05:17:07;;;;;;;0.30;0.30;;;9.10;99.90;;;;;;4948933;29;20223;-65
2023/11/21 05:19:34;;;;;;;0.40;0.40;;;9.10;99.90;;;;;;4954170;29;20181;-63
2023/11/21 05:22:00;;;;;;;0.30;0.30;;;9.10;99.90;;;;;;4939671;29;20228;-63
2023/11/21 05:24:26;;;;;;;0.30;0.30;;;9.10;99.90;;;;;;4947540;29;20246;-63
2023/11/21 05:26:52;;;;;;;0.30;0.30;;;9.10;99.90;;;;;;4918049;29;20798;-63
2023/11/21 05:29:18;;;;;;;0.30;0.30;;;9.10;99.90;;;;;;4918007;29;20898;-63
2023/11/21 05:31:44;;;;;;;0.30;0.30;;;9.10;99.90;;;;;;4917916;29;20185;-63
2023/11/21 05:34:09;;;;;;;0.30;0.30;;;9.10;99.90;;;;;;4901734;29;20265;-63
2023/11/21 05:36:35;;;;;;;0.30;0.30;;;9.10;99.90;;;;;;4917806;29;20245;-63
2023/11/21 05:39:00;;;;;;;0.30;0.30;;;9.10;99.90;;;;;;4918580;29;20178;-63
2023/11/21 05:41:26;;;;;;;0.30;0.30;;;9.10;99.90;;;;;;4900760;29;20185;-62
2023/11/21 05:43:53;;;;;;;0.30;0.30;;;9.00;99.90;;;;;;4917832;29;20174;-63
2023/11/21 05:46:19;;;;;;;0.30;0.30;;;9.00;99.90;;;;;;4917417;29;20201;-60
2023/11/21 05:48:46;;;;;;;0.40;0.40;;;9.00;99.90;;;;;;4917712;29;20186;-62
2023/11/21 05:51:13;;;;;;;0.98;0.98;;;9.00;99.90;;;;;;4917818;29;20178;-63
2023/11/21 05:53:39;;;;;;;0.30;0.30;;;9.00;99.90;;;;;;4918095;29;20173;-63
2023/11/21 05:56:05;;;;;;;0.30;0.30;;;9.00;99.90;;;;;;4921541;29;20251;-62
2023/11/21 05:58:30;;;;;;;0.30;0.30;;;9.00;99.90;;;;;;4936649;29;20177;-63
2023/11/21 06:00:57;;;;;;;0.30;0.30;;;9.00;99.90;;;;;;4936326;29;20441;-62
2023/11/21 06:03:23;;;;;;;0.30;0.30;;;8.90;99.90;;;;;;4936076;29;20928;-62
2023/11/21 06:05:48;;;;;;;0.30;0.20;;;9.00;99.90;;;;;;4935727;29;20225;-61
2023/11/21 06:08:16;;;;;;;0.30;0.30;;;8.90;99.90;;;;;;4935590;29;20271;-67
2023/11/21 06:10:43;;;;;;;0.30;0.30;;;8.90;99.90;;;;;;4916903;29;20566;-63
2023/11/21 06:13:10;;;;;;;0.85;0.85;;;8.90;99.90;;;;;;4917626;29;20195;-63
2023/11/21 06:15:36;;;;;;;0.63;0.63;;;8.90;99.90;;;;;;4916765;29;20599;-63
2023/11/21 06:18:02;;;;;;;0.30;0.30;;;8.90;99.90;;;;;;4917242;29;20181;-63
2023/11/21 06:20:27;;;;;;;0.30;0.30;;;8.90;99.90;;;;;;4917329;29;20181;-63
2023/11/21 06:22:53;;;;;;;0.30;0.30;;;8.90;99.90;;;;;;4917117;29;20421;-61
2023/11/21 06:25:19;;;;;;;0.30;0.30;;;8.90;99.90;;;;;;4916855;29;20230;-62
2023/11/21 06:27:49;;;;;;;0.30;0.30;;;8.90;99.90;;;;;;4916975;29;20182;-61
2023/11/21 06:30:15;;;;;;;1.05;0.45;;;8.90;99.90;;;;;;4917183;29;20171;-62
2023/11/21 06:32:45;;;;;;;0.30;0.30;;;9.00;99.90;;;;;;4917038;29;20278;-62
2023/11/21 06:35:11;;;;;;;0.30;0.30;;;9.00;99.90;;;;;;4910948;29;20638;-62
2023/11/21 06:37:37;;;;;;;0.40;0.40;;;9.00;99.90;;;;;;4916378;29;20701;-62
2023/11/21 06:40:04;;;;;;;0.30;0.28;;;9.00;99.90;;;;;;4925148;29;20586;-62
2023/11/21 06:42:30;;;;;;;0.30;0.30;;;9.00;99.90;;;;;;4901172;29;20234;-61
2023/11/21 06:44:59;;;;;;;0.30;0.30;;;9.00;99.90;;;;;;4916451;29;20178;-62
2023/11/21 06:47:25;;;;;;;0.30;0.30;;;9.00;99.90;;;;;;4899954;29;20446;-62
2023/11/21 06:49:51;;;;;;;0.30;0.30;;;9.00;99.90;;;;;;4912983;29;20684;-62
2023/11/21 06:52:18;;;;;;;0.30;0.30;;;9.00;99.90;;;;;;4939863;29;20181;-61
2023/11/21 06:54:43;;;;;;;0.30;0.30;;;9.00;99.90;;;;;;4939258;29;20665;-61
2023/11/21 06:57:09;;;;;;;0.37;0.37;;;9.10;99.90;;;;;;4939781;29;20170;-61
2023/11/21 06:59:35;;;;;;;0.30;0.30;;;9.10;99.90;;;;;;4939708;29;20721;-62
2023/11/21 07:02:00;;;;;;;0.30;0.30;;;9.20;99.90;;;;;;4939714;29;20214;-62
2023/11/21 07:04:26;;;;;;;0.30;0.30;;;9.20;99.90;;;;;;4911392;29;20185;-62
2023/11/21 07:06:53;;;;;;;0.30;0.30;;;9.20;99.90;;;;;;4920345;29;20686;-62
2023/11/21 07:09:21;;;;;;;0.30;0.20;;;9.20;99.90;;;;;;4920099;29;20178;-62
2023/11/21 07:11:48;;;;;;;0.30;0.30;;;9.30;99.90;;;;;;4923115;29;20198;-62
2023/11/21 07:14:14;;;;;;;0.30;0.30;;;9.30;99.90;;;;;;4939057;29;20169;-62
2023/11/21 07:16:40;;;;;;;0.30;0.30;;;9.30;99.90;;;;;;4938778;29;20205;-63
2023/11/21 07:19:09;;;;;;;0.30;0.30;;;9.30;99.90;;;;;;4939209;29;20171;-61
2023/11/21 07:21:36;;;;;;;0.30;0.30;;;9.30;99.90;;;;;;4922161;29;20528;-63
2023/11/21 07:24:02;;;;;;;0.30;0.30;;;9.30;99.90;;;;;;4938768;29;20642;-62
2023/11/21 07:26:28;;;;;;;0.30;0.30;;;9.40;99.90;;;;;;4936669;29;20200;-62
2023/11/21 07:28:54;;;;;;;0.30;0.30;;;9.40;99.90;;;;;;4926027;29;20177;-61
2023/11/21 07:31:20;;;;;;;0.30;0.30;;;9.40;99.90;;;;;;4939164;29;20469;-63
2023/11/21 07:33:47;;;;;;;0.30;0.30;;;9.50;99.90;;;;;;4938816;29;20414;-61
2023/11/21 07:36:13;;;;;;;1.73;1.63;;;9.50;99.90;;;;;;4938769;29;20206;-62
2023/11/21 07:38:39;;;;;;;0.30;0.30;;;9.60;99.90;;;;;;4921941;29;20218;-62
2023/11/21 07:41:07;;;;;;;0.30;0.30;;;9.60;99.90;;;;;;4937788;29;20178;-61
2023/11/21 07:43:35;;;;;;;0.63;0.40;;;9.70;99.90;;;;;;4935833;29;20493;-61
2023/11/21 07:46:04;;;;;;;0.33;0.33;;;9.70;99.90;;;;;;4938388;29;20433;-61
2023/11/21 07:48:34;;;;;;;0.30;0.30;;;9.70;99.90;;;;;;4938904;29;20411;-62
2023/11/21 07:51:00;;;;;;;0.30;0.30;;;9.70;99.90;;;;;;4938864;29;20199;-61
2023/11/21 07:53:29;;;;;;;0.30;0.30;;;9.80;99.90;;;;;;4938929;29;20654;-61
2023/11/21 07:55:56;;;;;;;0.40;0.40;;;9.80;99.90;;;;;;4936347;29;20246;-62
2023/11/21 07:58:21;;;;;;;0.30;0.30;;;9.90;99.90;;;;;;4930676;29;20188;-62
2023/11/21 08:00:47;;;;;;;0.30;0.20;;;9.90;99.90;;;;;;4919290;29;20250;-62
2023/11/21 08:03:13;;;;;;;0.30;0.30;;;9.90;99.90;;;;;;4920175;29;20180;-62
2023/11/21 08:05:39;;;;;;;0.30;0.30;;;9.90;99.90;;;;;;4919225;29;20603;-61
2023/11/21 08:08:05;;;;;;;0.40;0.40;;;9.90;99.90;;;;;;4919366;29;20423;-62
2023/11/21 08:10:31;;;;;;;0.30;0.30;;;9.90;99.90;;;;;;4919880;29;20429;-62
2023/11/21 08:12:56;;;;;;;0.30;0.30;;;9.90;99.90;;;;;;4919675;29;20186;-62
2023/11/21 08:15:22;;;;;;;0.30;0.30;;;9.90;99.90;;;;;;4920287;29;20683;-62
2023/11/21 08:17:48;;;;;;;0.30;0.30;;;10.00;99.90;;;;;;4919545;29;20199;-62
2023/11/21 08:20:16;;;;;;;0.40;0.40;;;10.00;99.90;;;;;;4902356;29;20180;-63
2023/11/21 08:22:42;;;;;;;0.30;0.30;;;10.00;99.90;;;;;;4919264;29;20175;-61
2023/11/21 08:25:08;;;;;;;0.30;0.30;;;10.10;99.90;;;;;;4918852;29;20203;-61
2023/11/21 08:27:37;;;;;;;0.30;0.30;;;10.10;99.90;;;;;;4937659;29;20219;-61
2023/11/21 08:30:03;;;;;;;0.30;0.30;;;10.10;99.90;;;;;;4937991;29;20489;-62
2023/11/21 08:32:32;;;;;;;0.30;0.30;;;10.10;99.90;;;;;;4938102;29;20415;-62
2023/11/21 08:34:58;;;;;;;0.35;0.35;;;10.20;99.90;;;;;;4920892;29;20558;-61
2023/11/21 08:37:23;;;;;;;0.30;0.30;;;10.20;99.90;;;;;;4937910;29;20261;-65
2023/11/21 08:39:49;;;;;;;0.30;0.30;;;10.20;99.90;;;;;;4937561;29;20918;-62
2023/11/21 08:42:15;;;;;;;0.30;0.30;;;10.20;99.90;;;;;;4902564;29;20843;-62
2023/11/21 08:44:41;;;;;;;0.30;0.30;;;10.30;99.90;;;;;;4918340;29;20178;-62
2023/11/21 08:47:06;;;;;;;0.30;0.30;;;10.40;99.90;;;;;;4918698;29;20170;-61
2023/11/21 08:49:32;;;;;;;0.30;0.30;;;10.40;99.90;;;;;;4928087;29;20430;-62
2023/11/21 08:51:59;;;;;;;0.30;0.30;;;10.50;99.90;;;;;;4937941;29;20175;-61
2023/11/21 08:54:26;;;;;;;0.30;0.30;;;10.50;99.90;;;;;;4937286;29;20179;-62
2023/11/21 08:56:52;;;;;;;0.30;0.30;;;10.50;99.90;;;;;;4937284;29;21001;-62
2023/11/21 08:59:18;;;;;;;0.30;0.30;;;10.60;99.90;;;;;;4937541;29;20422;-62
2023/11/21 09:01:43;;;;;;;0.30;0.30;;;10.60;99.90;;;;;;4937682;29;20411;-61
2023/11/21 09:04:09;;;;;;;0.30;0.30;;;10.70;99.90;;;;;;4927985;29;20225;-62
2023/11/21 09:06:35;;;;;;;0.30;0.30;;;10.70;99.90;;;;;;4917882;29;20203;-62
2023/11/21 09:09:01;;;;;;;0.30;0.30;;;10.70;99.90;;;;;;4901297;29;20191;-62
2023/11/21 09:11:33;;;;;;;0.40;0.40;;;10.60;99.90;;;;;;4900921;29;20462;-61
2023/11/21 09:13:59;;;;;;;0.30;0.30;;;10.70;99.90;;;;;;4917907;29;20789;-62
2023/11/21 09:16:24;;;;;;;0.40;0.40;;;10.70;99.90;;;;;;4919111;29;20583;-61
2023/11/21 09:18:50;;;;;;;0.47;0.47;;;10.70;99.90;;;;;;4918203;29;20436;-61
2023/11/21 09:21:16;;;;;;;0.30;0.30;;;10.70;99.90;;;;;;4918431;29;20169;-62
2023/11/21 09:23:46;;;;;;;0.40;0.40;;;10.80;99.90;;;;;;4917847;29;20244;-64
2023/11/21 09:26:11;;;;;;;0.40;0.40;;;10.90;99.90;;;;;;4917774;29;20247;-62
2023/11/21 09:28:38;;;;;;;0.30;0.30;;;11.10;99.90;;;;;;4918130;29;20448;-62
2023/11/21 09:31:04;;;;;;;0.30;0.30;;;11.50;99.90;;;;;;4917491;29;20247;-62
2023/11/21 09:33:31;;;;;;;0.30;0.30;;;12.30;99.90;;;;;;4937401;29;20405;-62
2023/11/21 09:35:56;;;;;;;0.30;0.30;;;13.20;99.90;;;;;;4936529;29;20495;-62
2023/11/21 09:38:22;;;;;;;0.30;0.30;;;13.80;99.90;;;;;;4936589;29;20452;-67
2023/11/21 09:40:49;;;;;;;0.30;0.20;;;14.00;99.90;;;;;;4935106;29;20424;-61
2023/11/21 09:43:18;;;;;;;0.30;0.20;;;14.20;99.90;;;;;;4936887;29;20174;-61
2023/11/21 09:45:50;;;;;;;0.30;0.30;;;14.40;99.90;;;;;;4936394;29;20798;-61
2023/11/21 09:48:17;;;;;;;0.30;0.20;;;14.30;99.90;;;;;;4937020;29;20388;-62
2023/11/21 09:50:43;;;;;;;0.30;0.20;;;14.10;99.90;;;;;;4936714;29;20413;-63
2023/11/21 09:53:20;;;;;;;0.30;0.20;;;14.00;99.90;;;;;;4919532;29;20975;-62
2023/11/21 09:55:48;;;;;;;0.30;0.20;;;13.90;99.90;;;;;;4918353;29;20486;-62
2023/11/21 09:58:14;;;;;;;0.30;0.20;;;13.80;99.90;;;;;;4917748;29;20416;-62
2023/11/21 10:00:47;;;;;;;0.40;0.40;;;13.70;99.90;;;;;;4917633;29;20477;-62
2023/11/21 10:03:14;;;;;;;0.30;0.30;;;13.40;99.90;;;;;;4917844;29;20799;-62
2023/11/21 10:05:42;;;;;;;0.63;0.63;;;13.10;99.90;;;;;;4917126;29;20420;-61
2023/11/21 10:08:12;;;;;;;0.30;0.20;;;13.00;99.90;;;;;;4917222;29;20815;-62
2023/11/21 10:10:44;;;;;;;0.37;0.37;;;12.90;99.90;;;;;;4935622;29;20778;-62
2023/11/21 10:13:12;;;;;;;0.30;0.20;;;12.70;99.90;;;;;;4919218;29;20487;-62
2023/11/21 10:15:38;;;;;;;0.30;0.30;;;12.60;99.90;;;;;;4935797;29;20522;-62
2023/11/21 10:18:06;;;;;;;0.30;0.30;;;12.50;99.90;;;;;;4936400;29;20417;-62
2023/11/21 10:20:33;;;;;;;0.50;0.40;;;12.40;99.90;;;;;;4936289;29;20762;-65
2023/11/21 10:23:01;;;;;;;0.30;0.20;;;12.40;99.90;;;;;;4936010;29;20757;-62
2023/11/21 10:25:27;;;;;;;0.30;0.30;;;12.30;99.90;;;;;;4916825;29;20449;-62
2023/11/21 10:28:00;;;;;;;0.30;0.20;;;12.30;99.90;;;;;;4917167;29;20473;-62
2023/11/21 10:30:37;;;;;;;0.30;0.30;;;12.40;99.90;;;;;;4917295;29;20418;-61
2023/11/21 10:33:04;;;;;;;0.50;0.50;;;12.40;99.90;;;;;;4928967;29;20428;-61
2023/11/21 10:35:50;;;;;;;0.30;0.30;;;12.40;99.90;;;;;;4935655;29;20540;-61
2023/11/21 10:38:22;;;;;;;0.30;0.20;;;12.40;99.90;;;;;;4936195;29;20912;-61
2023/11/21 10:40:49;;;;;;;0.30;0.30;;;12.50;99.90;;;;;;4935973;29;20940;-61
2023/11/21 10:43:15;;;;;;;0.30;0.20;;;12.50;99.90;;;;;;4936000;29;20401;-61
2023/11/21 10:45:42;;;;;;;0.30;0.30;;;12.40;99.90;;;;;;4935624;29;20463;-60
2023/11/21 10:48:16;;;;;;;0.40;0.40;;;12.30;99.90;;;;;;4920876;29;20437;-60
2023/11/21 10:50:46;;;;;;;0.30;0.30;;;12.10;99.90;;;;;;4917056;29;20471;-61
2023/11/21 10:53:12;;;;;;;0.30;0.30;;;12.00;99.90;;;;;;4917147;29;20467;-61
2023/11/21 10:55:38;;;;;;;0.30;0.27;;;11.80;99.90;;;;;;4916478;29;20472;-62
2023/11/21 10:58:05;;;;;;;0.30;0.30;;;11.80;99.90;;;;;;4916692;29;20488;-61
2023/11/21 11:00:32;;;;;;;0.30;0.20;;;11.60;99.90;;;;;;4916951;29;20413;-61
2023/11/21 11:02:59;;;;;;;0.30;0.30;;;11.50;99.90;;;;;;4913147;29;20427;-62
2023/11/21 11:05:28;;;;;;;0.30;0.30;;;11.40;99.90;;;;;;4935021;29;20702;-62
2023/11/21 11:08:12;;;;;;;0.30;0.20;;;11.40;99.90;;;;;;4935422;29;20467;-62
2023/11/21 11:10:39;;;;;;;0.30;0.30;;;11.40;99.90;;;;;;4935266;29;20464;-60
2023/11/21 11:13:07;;;;;;;0.30;0.30;;;11.40;99.90;;;;;;4935672;29;20473;-60
2023/11/21 11:15:33;;;;;;;0.83;0.63;;;11.30;99.90;;;;;;4934890;29;20223;-60
2023/11/21 11:17:59;;;;;;;0.30;0.30;;;11.40;99.90;;;;;;4917553;29;20436;-61
2023/11/21 11:20:31;;;;;;;0.30;0.30;;;11.40;99.90;;;;;;4914395;29;20456;-62
2023/11/21 11:23:03;;;;;;;0.30;0.30;;;11.50;99.90;;;;;;4914764;29;20417;-63
2023/11/21 11:26:11;;;;;;;0.30;0.30;;;11.60;99.90;;;;;;4914244;29;20465;-61
2023/11/21 11:29:23;;;;;;;0.30;0.30;;;11.70;99.90;;;;;;4870295;29;20809;-62
2023/11/21 11:32:13;;;;;;;0.30;0.30;;;11.80;99.90;;;;;;4924545;29;20424;-63
2023/11/21 11:34:59;;;;;;;0.30;0.30;;;11.90;99.90;;;;;;4916155;29;20520;-61
2023/11/21 11:37:25;;;;;;;0.30;0.30;;;11.90;99.90;;;;;;4937245;29;20812;-61
2023/11/21 11:39:51;;;;;;;0.30;0.30;;;12.00;99.90;;;;;;4937281;29;20412;-61
2023/11/21 11:42:17;;;;;;;0.30;0.30;;;12.00;99.90;;;;;;4938911;29;20178;-61
2023/11/21 11:44:46;;;;;;;0.30;0.30;;;12.10;99.90;;;;;;4938560;29;20936;-61
2023/11/21 11:47:16;;;;;;;0.30;0.30;;;12.10;99.90;;;;;;4938307;29;20395;-62
2023/11/21 11:50:00;;;;;;;0.30;0.30;;;12.10;99.90;;;;;;4939014;29;20383;-62
2023/11/21 11:52:32;;;;;;;0.30;0.30;;;12.30;99.90;;;;;;4939000;29;20446;-62
2023/11/21 11:55:00;;;;;;;0.30;0.30;;;12.30;99.90;;;;;;4921263;29;20472;-62
2023/11/21 11:57:25;;;;;;;0.30;0.20;;;12.30;99.90;;;;;;4921719;29;20936;-61
2023/11/21 12:00:34;;;;;;;0.30;0.30;;;12.30;99.90;;;;;;4938756;29;20413;-61
2023/11/21 12:03:03;;;;;;;0.30;0.30;;;12.30;99.90;;;;;;4919773;29;20184;-63
2023/11/21 12:05:32;;;;;;;0.30;0.30;;;12.20;99.90;;;;;;4919375;29;20466;-61
2023/11/21 12:08:00;;;;;;;0.30;0.30;;;12.20;99.90;;;;;;4919173;29;20857;-61
2023/11/21 12:10:31;;;;;;;0.30;0.20;;;12.10;99.90;;;;;;4919765;29;20910;-61
2023/11/21 12:12:59;;;;;;;0.30;0.30;;;12.10;99.90;;;;;;4919914;29;20925;-61
2023/11/21 12:15:25;;;;;;;0.70;0.53;;;12.00;99.90;;;;;;4919170;29;20524;-61
2023/11/21 12:17:51;;;;;;;0.30;0.30;;;12.00;99.90;;;;;;4919492;29;20739;-61
2023/11/21 12:20:21;;;;;;;0.30;0.20;;;12.00;99.90;;;;;;4927716;29;20482;-61
2023/11/21 12:22:48;;;;;;;0.30;0.30;;;12.00;99.90;;;;;;4923106;29;20862;-64
2023/11/21 12:25:19;;;;;;;0.30;0.30;;;12.00;99.90;;;;;;4918585;29;20801;-61
2023/11/21 12:27:52;;;;;;;0.30;0.20;;;12.10;99.90;;;;;;4925477;29;20427;-61
2023/11/21 12:30:23;;;;;;;0.30;0.30;;;12.00;99.90;;;;;;4937474;29;20498;-60
2023/11/21 12:32:53;;;;;;;0.40;0.40;;;12.10;99.90;;;;;;4932526;29;20394;-60
2023/11/21 12:35:19;;;;;;;0.30;0.20;;;12.10;99.90;;;;;;4937321;29;20490;-62
2023/11/21 12:37:46;;;;;;;0.30;0.30;;;12.20;99.90;;;;;;4937386;29;20428;-60
2023/11/21 12:40:15;;;;;;;0.50;0.50;;;12.20;99.90;;;;;;4937490;29;20425;-60
2023/11/21 12:42:53;;;;;;;0.30;0.20;;;12.20;99.90;;;;;;4937939;29;20436;-60
2023/11/21 12:45:20;;;;;;;0.30;0.30;;;12.20;99.90;;;;;;4920699;29;20506;-61
2023/11/21 12:47:59;;;;;;;0.30;0.20;;;12.20;99.90;;;;;;4937232;29;20425;-60
2023/11/21 12:50:31;;;;;;;0.30;0.20;;;12.10;99.90;;;;;;4934251;29;20427;-61
2023/11/21 12:53:08;;;;;;;0.30;0.20;;;12.10;99.90;;;;;;4935177;29;20403;-61
2023/11/21 12:55:37;;;;;;;0.30;0.30;;;12.00;99.90;;;;;;4934208;29;20907;-60
2023/11/21 12:58:11;;;;;;;0.30;0.20;;;12.10;99.90;;;;;;4936975;29;20417;-62
2023/11/21 13:00:42;;;;;;;0.30;0.20;;;12.00;99.90;;;;;;4934848;29;20379;-62
2023/11/21 13:03:12;;;;;;;0.30;0.30;;;12.00;99.90;;;;;;4937649;29;20402;-62
2023/11/21 13:05:39;;;;;;;0.30;0.30;;;12.10;99.90;;;;;;4936412;29;20808;-61
2023/11/21 13:08:07;;;;;;;0.30;0.30;;;12.20;99.90;;;;;;4937396;29;20425;-62
2023/11/21 13:10:36;;;;;;;0.40;0.40;;;12.40;99.90;;;;;;4937342;29;20387;-62
2023/11/21 13:13:05;;;;;;;0.30;0.30;;;12.50;99.90;;;;;;4919969;29;20424;-60
2023/11/21 13:15:32;;;;;;;0.30;0.30;;;12.50;99.90;;;;;;4935101;29;20560;-60
2023/11/21 13:17:58;;;;;;;0.30;0.30;;;12.50;99.90;;;;;;4937014;29;20409;-61
2023/11/21 13:20:25;;;;;;;0.30;0.30;;;12.40;99.90;;;;;;4937280;29;20413;-61
2023/11/21 13:23:03;;;;;;;0.30;0.20;;;12.30;99.90;;;;;;4937129;29;20384;-60
2023/11/21 13:25:30;;;;;;;0.30;0.30;;;12.20;99.90;;;;;;4936447;29;20417;-60
2023/11/21 13:27:57;;;;;;;0.30;0.30;;;12.00;99.90;;;;;;4937061;29;20417;-59
2023/11/21 13:30:27;;;;;;;0.30;0.23;;;11.80;99.90;;;;;;4925695;29;20407;-60
2023/11/21 13:32:57;;;;;;;0.30;0.30;;;11.70;99.90;;;;;;4902070;29;20417;-60
2023/11/21 13:35:31;;;;;;;0.30;0.30;;;11.70;99.90;;;;;;4917325;29;20465;-61
2023/11/21 13:37:59;;;;;;;0.30;0.20;;;11.60;99.90;;;;;;4917777;29;20415;-60
2023/11/21 13:40:26;;;;;;;0.30;0.30;;;11.50;99.90;;;;;;4917623;29;20452;-60
2023/11/21 13:42:59;;;;;;;0.30;0.20;;;11.40;99.90;;;;;;4917273;29;20431;-62
2023/11/21 13:45:28;;;;;;;0.30;0.20;;;11.30;99.90;;;;;;4920480;29;20948;-63
2023/11/21 13:48:05;;;;;;;0.30;0.30;;;11.20;99.90;;;;;;4927596;29;20492;-60
2023/11/21 13:50:33;;;;;;;0.30;0.30;;;11.20;99.90;;;;;;4922163;29;20438;-60
2023/11/21 13:53:10;;;;;;;0.30;0.30;;;11.10;99.90;;;;;;4928422;29;20412;-61
2023/11/21 13:55:36;;;;;;;0.30;0.30;;;11.10;99.90;;;;;;4934731;29;21114;-61
2023/11/21 13:58:03;;;;;;;0.30;0.30;;;11.00;99.90;;;;;;4934916;29;20463;-61
2023/11/21 14:00:44;;;;;;;0.30;0.20;;;11.00;99.90;;;;;;4919820;29;20399;-62
2023/11/21 14:03:18;;;;;;;0.30;0.30;;;11.00;99.90;;;;;;4923855;29;20512;-63
2023/11/21 14:05:47;;;;;;;0.30;0.30;;;11.00;99.90;;;;;;4915646;29;20451;-61
2023/11/21 14:08:16;;;;;;;0.30;0.30;;;11.00;99.90;;;;;;4916039;29;20440;-61
2023/11/21 14:10:49;;;;;;;0.70;0.70;;;11.00;99.90;;;;;;4916031;29;20420;-61
2023/11/21 14:13:16;;;;;;;0.33;0.33;;;11.10;99.90;;;;;;4924982;29;20422;-62
2023/11/21 14:15:45;;;;;;;0.30;0.30;;;11.00;99.90;;;;;;4916661;29;20484;-60
2023/11/21 14:18:11;;;;;;;0.30;0.30;;;11.00;99.90;;;;;;4917542;29;20405;-62
2023/11/21 14:20:37;;;;;;;0.30;0.20;;;11.00;99.90;;;;;;4917094;29;20744;-63
2023/11/21 14:23:05;;;;;;;0.30;0.30;;;11.00;99.90;;;;;;4918011;29;20435;-67
2023/11/21 14:25:32;;;;;;;0.30;0.30;;;11.00;99.90;;;;;;4914948;29;20447;-62
2023/11/21 14:27:57;;;;;;;0.30;0.27;;;10.90;99.90;;;;;;4913241;29;20506;-65
2023/11/21 14:30:23;;;;;;;0.30;0.30;;;10.90;99.90;;;;;;4925873;29;20463;-69
2023/11/21 14:32:49;;;;;;;0.30;0.20;;;10.90;99.90;;;;;;4916965;29;20187;-66
2023/11/21 14:35:16;;;;;;;0.30;0.30;;;10.90;99.90;;;;;;4929536;29;20258;-65
2023/11/21 14:37:43;;;;;;;0.50;0.50;;;10.90;99.90;;;;;;4919151;29;20429;-73
2023/11/21 14:40:09;;;;;;;0.30;0.20;;;10.80;99.90;;;;;;4917137;29;20423;-73
2023/11/21 14:42:37;;;;;;;0.30;0.30;;;10.80;99.90;;;;;;4920725;29;20436;-64
2023/11/21 14:45:06;;;;;;;0.30;0.20;;;10.70;99.90;;;;;;4935522;29;20198;-64
2023/11/21 14:47:32;;;;;;;0.30;0.30;;;10.70;99.90;;;;;;4935960;29;20663;-63
2023/11/21 14:49:59;;;;;;;0.30;0.30;;;10.60;99.90;;;;;;4935839;29;20414;-63
2023/11/21 14:55:19;;;;;;;0.30;0.20;;;10.50;99.90;;;;;;4921435;29;20210;-67
2023/11/21 14:57:49;;;;;;;0.30;0.30;;;10.60;99.90;;;;;;4916716;29;20179;-66
2023/11/21 15:00:40;;;;;;;0.30;0.30;;;10.50;99.90;;;;;;4899915;29;20189;-66
2023/11/21 15:03:03;;;;;;;0.30;0.30;;;10.50;99.90;;;;;;4920918;29;20184;-66
2023/11/21 15:05:29;;;;;;;0.30;0.20;;;10.50;99.90;;;;;;4916425;29;20195;-69
2023/11/21 15:08:13;;;;;;;0.30;0.20;;;10.50;99.90;;;;;;4916615;29;20439;-72
2023/11/21 15:10:47;;;;;;;0.30;0.30;;;10.40;99.90;;;;;;4933396;29;20802;-71
2023/11/21 15:13:14;;;;;;;0.30;0.30;;;10.40;99.90;;;;;;4920459;29;20182;-70
2023/11/21 15:15:41;;;;;;;0.30;0.30;;;10.40;99.90;;;;;;4919969;29;20206;-68
2023/11/21 15:18:06;;;;;;;0.30;0.30;;;10.40;99.90;;;;;;4920763;29;20244;-72
2023/11/21 15:20:32;;;;;;;0.30;0.30;;;10.40;99.90;;;;;;4923841;29;20262;-74
2023/11/21 15:22:58;;;;;;;0.40;0.40;;;10.30;99.90;;;;;;4915994;29;20251;-75
2023/11/21 15:25:24;;;;;;;0.30;0.30;;;10.30;99.90;;;;;;4921405;29;20450;-72
2023/11/21 15:27:50;;;;;;;0.30;0.30;;;10.30;99.90;;;;;;4920528;29;20179;-73
2023/11/21 15:30:20;;;;;;;0.30;0.30;;;10.20;99.90;;;;;;4906206;29;20187;-74
2023/11/21 15:32:46;;;;;;;0.30;0.30;;;10.20;99.90;;;;;;4938976;29;20768;-71
2023/11/21 15:35:14;;;;;;;0.30;0.30;;;10.10;99.90;;;;;;4938466;29;20242;-70
2023/11/21 15:37:40;;;;;;;0.30;0.30;;;10.10;99.90;;;;;;4939162;29;20233;-74
2023/11/21 15:40:08;;;;;;;0.30;0.30;;;10.00;99.90;;;;;;4923531;29;20206;-70
2023/11/21 15:42:35;;;;;;;0.30;0.30;;;10.00;99.90;;;;;;4934761;29;20459;-70
2023/11/21 15:45:01;;;;;;;0.30;0.30;;;10.00;99.90;;;;;;4938507;29;20189;-68
2023/11/21 15:47:27;;;;;;;0.68;0.57;;;10.00;99.90;;;;;;4938923;29;20197;-69
2023/11/21 15:49:53;;;;;;;0.30;0.30;;;10.00;99.90;;;;;;4938639;29;20530;-68
2023/11/21 15:52:19;;;;;;;0.50;0.50;;;10.00;99.90;;;;;;4934682;29;20179;-68
2023/11/21 15:54:45;;;;;;;0.30;0.20;;;9.90;99.90;;;;;;4934358;29;20275;-68
2023/11/21 15:57:12;;;;;;;0.30;0.30;;;9.90;99.90;;;;;;4938782;29;20186;-69
2023/11/21 15:59:42;;;;;;;0.30;0.30;;;9.90;99.90;;;;;;4938863;29;20206;-69
2023/11/21 16:02:07;;;;;;;0.30;0.30;;;9.90;99.90;;;;;;4913211;29;20183;-69
2023/11/21 16:04:36;;;;;;;0.30;0.30;;;9.90;99.90;;;;;;4916180;29;20678;-67
2023/11/21 16:07:02;;;;;;;0.30;0.30;;;9.90;99.90;;;;;;4937985;29;20246;-72
2023/11/21 16:09:30;;;;;;;0.30;0.30;;;9.90;99.90;;;;;;4927331;29;20190;-72
2023/11/21 16:12:01;;;;;;;0.30;0.30;;;9.90;99.90;;;;;;4919717;29;20523;-69
2023/11/21 16:14:41;;;;;;;0.30;0.20;;;9.90;99.90;;;;;;4924655;29;20185;-67
2023/11/21 16:17:07;;;;;;;0.30;0.30;;;9.80;99.90;;;;;;4921891;29;20288;-64
2023/11/21 16:19:33;;;;;;;0.30;0.30;;;9.80;99.90;;;;;;4919521;29;20633;-68
2023/11/21 16:22:00;;;;;;;0.30;0.30;;;9.80;99.90;;;;;;4901795;29;20202;-64
2023/11/21 16:24:27;;;;;;;0.30;0.30;;;9.80;99.90;;;;;;4911014;29;20961;-63
2023/11/21 16:26:56;;;;;;;0.30;0.30;;;9.80;99.90;;;;;;4937665;29;20307;-63
2023/11/21 16:29:22;;;;;;;0.30;0.30;;;9.70;99.90;;;;;;4938138;29;20178;-64
2023/11/21 16:31:52;;;;;;;0.30;0.30;;;9.70;99.90;;;;;;4938136;29;20225;-64
2023/11/21 16:34:18;;;;;;;0.30;0.30;;;9.60;99.90;;;;;;4937431;29;20176;-63
2023/11/21 16:36:48;;;;;;;0.30;0.30;;;9.50;99.90;;;;;;4920399;29;20226;-64
2023/11/21 16:39:16;;;;;;;0.30;0.30;;;9.40;99.90;;;;;;4924439;29;20174;-65
2023/11/21 16:41:43;;;;;;;0.30;0.30;;;9.40;99.90;;;;;;4918770;29;20249;-63
2023/11/21 16:44:17;;;;;;;0.40;0.40;;;9.40;99.90;;;;;;4915208;29;20181;-63
2023/11/21 16:46:50;;;;;;;0.32;0.32;;;9.30;99.90;;;;;;4936493;29;20206;-63
2023/11/21 16:49:16;;;;;;;0.30;0.20;;;9.30;99.90;;;;;;4937656;29;20590;-64
2023/11/21 16:51:50;;;;;;;0.30;0.30;;;9.20;99.90;;;;;;4935912;29;20185;-62
2023/11/21 16:54:15;;;;;;;0.30;0.30;;;9.10;99.90;;;;;;4916050;29;20654;-65
2023/11/21 16:56:42;;;;;;;0.30;0.30;;;9.10;99.90;;;;;;4918335;29;20221;-62
2023/11/21 16:59:08;;;;;;;0.40;0.40;;;9.00;99.90;;;;;;4901548;29;20193;-64
2023/11/21 17:01:34;;;;;;;0.30;0.30;;;8.90;99.90;;;;;;4918224;29;20167;-65
2023/11/21 17:04:00;;;;;;;0.30;0.30;;;8.90;99.90;;;;;;4925464;29;20182;-67
2023/11/21 17:06:26;;;;;;;0.30;0.30;;;8.90;99.90;;;;;;4901079;29;20562;-62